Time;durP1;ratioP1;P1;durP2;ratioP2;P2;SDS_P1;SDS_P2;PMS_P1;PMS_P2;Temp;Humidity;BMP_temperature;BMP_pressure;BME280_temperature;BME280_humidity;BME280_pressure;Samples;Min_cycle;Max_cycle;Signal;HPM_P1;HPM_P2
2021/05/12 00:02:05;;;;;;;8.07;2.30;;;;;;;11.29;100.00;100815.17;1765082;81;26243;-71
2021/05/12 00:04:35;;;;;;;6.63;1.70;;;;;;;11.39;100.00;100813.68;1765224;81;26239;-71
2021/05/12 00:07:05;;;;;;;7.00;1.60;;;;;;;11.28;100.00;100817.67;1765207;81;26231;-71
2021/05/12 00:09:34;;;;;;;3.47;1.23;;;;;;;11.30;100.00;100817.64;1757907;81;26304;-71
2021/05/12 00:12:05;;;;;;;6.53;1.70;;;;;;;11.34;100.00;100820.67;1757284;82;26322;-71
2021/05/12 00:14:36;;;;;;;7.10;1.23;;;;;;;11.36;100.00;100816.49;1757458;82;26251;-71
2021/05/12 00:17:07;;;;;;;5.67;1.33;;;;;;;11.43;100.00;100831.44;1757266;82;26743;-71
2021/05/12 00:19:39;;;;;;;3.93;1.13;;;;;;;11.39;100.00;100824.25;1757285;82;26287;-71
2021/05/12 00:22:29;;;;;;;5.50;1.20;;;;;;;11.41;100.00;100828.97;1757586;82;26247;-71
2021/05/12 00:24:49;;;;;;;6.30;1.30;;;;;;;11.49;100.00;100828.90;1755726;80;26247;-71
2021/05/12 00:27:19;;;;;;;5.03;1.70;;;;;;;11.51;100.00;100826.64;1757390;82;26678;-71
2021/05/12 00:29:49;;;;;;;3.40;1.30;;;;;;;11.60;100.00;100822.11;1757305;82;26243;-72
2021/05/12 00:32:19;;;;;;;3.97;1.43;;;;;;;11.53;100.00;100827.19;1757321;82;26243;-71
2021/05/12 00:34:48;;;;;;;3.63;1.30;;;;;;;11.54;100.00;100824.69;1757336;82;26673;-72
2021/05/12 00:37:18;;;;;;;5.90;1.33;;;;;;;11.66;100.00;100824.28;1757388;82;26235;-71
2021/05/12 00:39:48;;;;;;;6.70;1.07;;;;;;;11.72;100.00;100830.11;1757258;82;26805;-71
2021/05/12 00:42:18;;;;;;;5.27;1.30;;;;;;;11.57;100.00;100822.70;1757456;82;26248;-71
2021/05/12 00:44:48;;;;;;;3.37;1.40;;;;;;;11.71;100.00;100820.91;1757324;82;26251;-71
2021/05/12 00:47:19;;;;;;;6.03;1.20;;;;;;;11.69;100.00;100823.69;1757386;82;26662;-71
2021/05/12 00:49:49;;;;;;;4.13;0.97;;;;;;;11.68;100.00;100818.68;1756863;81;26244;-71
2021/05/12 00:52:19;;;;;;;3.97;1.20;;;;;;;11.66;100.00;100823.73;1757371;82;26244;-71
2021/05/12 00:54:48;;;;;;;5.43;1.30;;;;;;;11.66;100.00;100829.30;1757430;82;26325;-72
2021/05/12 00:57:18;;;;;;;6.13;1.00;;;;;;;11.59;100.00;100822.42;1757615;82;26239;-71
2021/05/12 00:59:50;;;;;;;4.83;1.37;;;;;;;11.63;100.00;100822.93;1757350;82;26334;-71
2021/05/12 01:02:20;;;;;;;6.13;1.57;;;;;;;11.63;100.00;100830.45;1757356;82;26360;-71
2021/05/12 01:04:51;;;;;;;5.97;1.30;;;;;;;11.72;100.00;100833.70;1757399;82;26247;-71
2021/05/12 01:07:21;;;;;;;6.43;1.33;;;;;;;11.75;100.00;100817.00;1757615;82;26246;-71
2021/05/12 01:09:50;;;;;;;5.60;1.30;;;;;;;11.74;100.00;100816.16;1767269;81;26777;-71
2021/05/12 01:12:21;;;;;;;7.57;1.40;;;;;;;11.69;100.00;100823.13;1770649;81;26339;-71
2021/05/12 01:14:51;;;;;;;5.97;1.57;;;;;;;11.65;100.00;100824.84;1770705;81;26765;-71
2021/05/12 01:17:20;;;;;;;6.53;1.47;;;;;;;11.66;100.00;100820.95;1770580;81;26247;-71
2021/05/12 01:19:50;;;;;;;4.97;1.30;;;;;;;11.73;100.00;100815.05;1770585;81;26685;-71
2021/05/12 01:22:20;;;;;;;7.30;1.30;;;;;;;11.68;100.00;100824.25;1770585;81;26333;-71
2021/05/12 01:24:50;;;;;;;5.37;1.27;;;;;;;11.69;100.00;100823.13;1770737;81;26279;-71
2021/05/12 01:27:20;;;;;;;3.77;1.40;;;;;;;11.79;100.00;100827.25;1770644;81;26301;-71
2021/05/12 01:29:50;;;;;;;5.40;1.50;;;;;;;11.83;100.00;100814.96;1770589;81;26313;-71
2021/05/12 01:32:20;;;;;;;8.27;1.87;;;;;;;11.75;100.00;100816.44;1770531;81;26321;-71
2021/05/12 01:34:49;;;;;;;7.80;1.57;;;;;;;11.78;100.00;100819.18;1770746;81;26364;-72
2021/05/12 01:37:19;;;;;;;5.37;2.03;;;;;;;11.83;100.00;100819.13;1770631;81;26305;-71
2021/05/12 01:39:49;;;;;;;5.23;1.30;;;;;;;11.73;100.00;100822.84;1770544;81;26239;-71
2021/05/12 01:42:19;;;;;;;11.40;2.13;;;;;;;11.71;100.00;100823.69;1770713;81;26247;-71
2021/05/12 01:44:48;;;;;;;7.27;1.40;;;;;;;11.71;100.00;100822.30;1770603;81;26239;-71
2021/05/12 01:47:18;;;;;;;6.00;1.47;;;;;;;11.71;100.00;100822.30;1770553;81;26678;-71
2021/05/12 01:49:51;;;;;;;6.47;1.33;;;;;;;11.67;100.00;100819.83;1770469;81;26243;-71
2021/05/12 01:52:20;;;;;;;7.57;2.03;;;;;;;11.76;100.00;100819.50;1770479;81;26239;-71
2021/05/12 01:54:50;;;;;;;4.00;1.47;;;;;;;11.74;100.00;100816.16;1770566;81;26247;-71
2021/05/12 01:57:20;;;;;;;7.37;1.73;;;;;;;11.83;100.00;100815.80;1770515;81;26244;-71
2021/05/12 01:59:50;;;;;;;6.40;1.47;;;;;;;11.82;100.00;100815.52;1770514;81;26327;-71
2021/05/12 02:02:19;;;;;;;3.83;1.33;;;;;;;11.78;100.00;100819.18;1770486;81;26270;-71
2021/05/12 02:04:49;;;;;;;7.03;1.37;;;;;;;11.81;100.00;100818.59;1770474;81;26286;-71
2021/05/12 02:07:19;;;;;;;5.03;1.00;;;;;;;11.82;100.00;100815.52;1770513;81;26254;-71
2021/05/12 02:09:52;;;;;;;5.10;1.70;;;;;;;11.83;100.00;100817.19;1764748;81;26314;-71
2021/05/12 02:12:22;;;;;;;6.83;1.57;;;;;;;11.82;100.00;100816.08;1765921;81;26254;-71
2021/05/12 02:14:52;;;;;;;5.00;1.47;;;;;;;11.83;100.00;100815.80;1770517;81;26235;-71
2021/05/12 02:17:22;;;;;;;6.40;1.87;;;;;;;11.85;100.00;100817.70;1770468;81;26426;-71
2021/05/12 02:19:51;;;;;;;6.07;1.50;;;;;;;11.82;100.00;100823.87;1770340;81;26258;-71
2021/05/12 02:22:21;;;;;;;10.87;2.10;;;;;;;11.86;100.00;100822.16;1770405;81;26324;-72
2021/05/12 02:24:51;;;;;;;9.57;1.67;;;;;;;11.99;100.00;100820.63;1770488;81;26434;-71
2021/05/12 02:27:21;;;;;;;9.60;1.63;;;;;;;11.90;100.00;100815.98;1770481;81;26255;-71
2021/05/12 02:29:50;;;;;;;9.57;1.77;;;;;;;11.84;100.00;100819.41;1770472;81;26755;-71
2021/05/12 02:32:20;;;;;;;7.30;2.07;;;;;;;11.85;100.00;100819.09;1770590;81;26254;-71
2021/05/12 02:34:50;;;;;;;7.13;2.30;;;;;;;11.78;100.00;100815.84;1770453;81;26326;-72
2021/05/12 02:37:20;;;;;;;10.37;1.90;;;;;;;11.78;100.00;100813.06;1770516;81;26238;-72
2021/05/12 02:39:50;;;;;;;10.20;1.93;;;;;;;11.84;100.00;100812.45;1770473;81;26247;-72
2021/05/12 02:42:21;;;;;;;12.70;2.33;;;;;;;11.88;100.00;100812.69;1770670;81;26238;-72
2021/05/12 02:44:51;;;;;;;9.83;2.10;;;;;;;11.84;100.00;100813.29;1770517;81;26255;-72
2021/05/12 02:47:20;;;;;;;8.80;2.23;;;;;;;11.81;100.00;100815.24;1770483;81;26259;-71
2021/05/12 02:49:51;;;;;;;8.00;1.97;;;;;;;11.77;100.00;100823.91;1770561;81;26266;-71
2021/05/12 02:52:21;;;;;;;11.77;2.13;;;;;;;11.79;100.00;100816.67;1770453;81;26258;-70
2021/05/12 02:54:51;;;;;;;12.57;2.20;;;;;;;11.74;100.00;100825.91;1770528;81;26328;-71
2021/05/12 02:57:22;;;;;;;14.47;2.23;;;;;;;11.65;100.00;100815.11;1770463;81;26754;-71
2021/05/12 02:59:53;;;;;;;11.33;2.20;;;;;;;11.71;100.00;100829.81;1770559;81;26678;-71
2021/05/12 03:02:23;;;;;;;7.33;2.13;;;;;;;11.59;100.00;100826.03;1770462;81;26332;-71
2021/05/12 03:04:53;;;;;;;10.07;2.17;;;;;;;11.54;100.00;100827.47;1770551;81;26258;-71
2021/05/12 03:07:22;;;;;;;7.50;1.73;;;;;;;11.46;100.00;100828.66;1770490;81;26231;-71
2021/05/12 03:09:52;;;;;;;12.60;2.50;;;;;;;11.46;100.00;100828.66;1769936;81;26762;-71
2021/05/12 03:12:22;;;;;;;7.97;2.00;;;;;;;11.38;100.00;100826.75;1765900;81;26311;-71
2021/05/12 03:14:52;;;;;;;10.87;2.93;;;;;;;11.40;100.00;100824.52;1766013;81;26329;-71
2021/05/12 03:17:21;;;;;;;9.50;1.90;;;;;;;11.44;100.00;100828.94;1765882;81;26325;-72
2021/05/12 03:19:52;;;;;;;5.47;1.50;;;;;;;11.21;100.00;100829.70;1765965;81;26433;-71
2021/05/12 03:22:21;;;;;;;13.27;2.83;;;;;;;11.12;100.00;100832.27;1765848;81;26664;-72
2021/05/12 03:24:51;;;;;;;9.10;2.13;;;;;;;11.08;100.00;100825.59;1765922;81;26324;-71
2021/05/12 03:27:38;;;;;;;8.60;2.47;;;;;;;11.08;100.00;100835.33;1688081;85;33601;-72
2021/05/12 03:30:11;;;;;;;10.40;2.60;;;;;;;11.03;100.00;100838.17;1688632;85;26468;-71
2021/05/12 03:32:41;;;;;;;11.27;3.10;;;;;;;11.04;100.00;100834.25;1688590;85;26281;-71
2021/05/12 03:35:13;;;;;;;12.13;2.30;;;;;;;11.00;100.00;100840.67;1688686;85;26720;-71
2021/05/12 03:37:43;;;;;;;14.43;3.10;;;;;;;11.04;100.00;100841.78;1688700;85;26759;-71
2021/05/12 03:40:14;;;;;;;10.17;2.13;;;;;;;10.97;100.00;100842.09;1688662;85;26366;-71
2021/05/12 03:42:46;;;;;;;11.67;2.73;;;;;;;10.93;100.00;100842.39;1688685;85;26274;-71
2021/05/12 03:45:17;;;;;;;10.90;2.50;;;;;;;10.87;100.00;100843.53;1688695;85;26277;-71
2021/05/12 03:47:47;;;;;;;12.47;1.93;;;;;;;10.79;100.00;100839.42;1688681;85;26742;-71
2021/05/12 03:50:18;;;;;;;12.33;2.87;;;;;;;10.80;100.00;100848.59;1688619;85;26347;-71
2021/05/12 03:52:48;;;;;;;7.40;2.10;;;;;;;10.75;100.00;100850.83;1688554;85;26273;-72
2021/05/12 03:55:19;;;;;;;13.03;2.23;;;;;;;10.74;100.00;100842.80;1688589;85;26831;-71
2021/05/12 03:57:48;;;;;;;12.27;2.90;;;;;;;10.73;100.00;100846.70;1690120;81;26293;-72
2021/05/12 04:00:20;;;;;;;9.57;2.13;;;;;;;10.71;100.00;100842.80;1752597;78;936750;-71
2021/05/12 04:02:50;;;;;;;12.87;2.57;;;;;;;10.60;100.00;100843.16;1737913;82;26721;-71
2021/05/12 04:05:20;;;;;;;11.77;2.77;;;;;;;10.62;100.00;100844.52;1737887;82;26703;-71
2021/05/12 04:07:51;;;;;;;12.23;2.70;;;;;;;10.73;100.00;100845.30;1737892;82;26324;-71
2021/05/12 04:10:22;;;;;;;16.07;2.70;;;;;;;10.67;100.00;100854.22;1736499;82;26665;-71
2021/05/12 04:12:51;;;;;;;13.90;2.20;;;;;;;10.70;100.00;100852.25;1718322;82;26336;-71
2021/05/12 04:15:21;;;;;;;10.73;2.57;;;;;;;10.89;100.00;100851.04;1742094;82;26259;-71
2021/05/12 04:17:51;;;;;;;12.70;2.50;;;;;;;11.00;100.00;100858.18;1741649;82;26317;-71
2021/05/12 04:20:22;;;;;;;11.87;2.37;;;;;;;11.05;100.00;100853.98;1742432;82;26266;-71
2021/05/12 04:22:52;;;;;;;12.33;2.47;;;;;;;11.12;100.00;100854.51;1749204;82;26322;-71
2021/05/12 04:25:24;;;;;;;10.57;2.13;;;;;;;11.11;100.00;100852.84;1742440;82;26751;-71
2021/05/12 04:27:54;;;;;;;11.03;2.60;;;;;;;10.93;100.00;100852.95;1743153;82;26232;-71
2021/05/12 04:30:25;;;;;;;9.03;2.37;;;;;;;11.02;100.00;100855.13;1740182;82;26376;-71
2021/05/12 04:32:56;;;;;;;12.17;2.10;;;;;;;10.98;100.00;100858.21;1739129;82;26283;-71
2021/05/12 04:35:27;;;;;;;14.97;2.87;;;;;;;10.86;100.00;100857.17;1741793;82;26330;-71
2021/05/12 04:37:57;;;;;;;14.33;3.33;;;;;;;10.77;100.00;100859.73;1739298;82;26721;-71
2021/05/12 04:40:27;;;;;;;13.47;2.33;;;;;;;10.89;100.00;100862.16;1740340;82;27046;-71
2021/05/12 04:42:57;;;;;;;11.50;2.67;;;;;;;10.82;100.00;100857.48;1747291;82;26654;-71
2021/05/12 04:45:27;;;;;;;10.50;2.47;;;;;;;10.80;100.00;100864.70;1741839;82;26267;-71
2021/05/12 04:47:57;;;;;;;9.90;2.50;;;;;;;10.87;100.00;100861.59;1749327;82;26251;-71
2021/05/12 04:50:29;;;;;;;10.47;2.43;;;;;;;10.77;100.00;100858.34;1742557;82;26331;-71
2021/05/12 04:53:00;;;;;;;12.30;3.00;;;;;;;10.79;100.00;100858.87;1749406;82;26231;-72
2021/05/12 04:55:30;;;;;;;9.57;2.30;;;;;;;10.73;100.00;100864.75;1742487;82;26387;-72
2021/05/12 04:58:00;;;;;;;8.37;2.63;;;;;;;10.71;100.00;100865.58;1748806;82;26239;-72
2021/05/12 05:00:30;;;;;;;10.63;2.30;;;;;;;10.73;100.00;100863.36;1740380;82;26261;-71
2021/05/12 05:03:02;;;;;;;12.93;3.33;;;;;;;10.76;100.00;100869.17;1740207;82;26282;-71
2021/05/12 05:05:31;;;;;;;11.60;3.17;;;;;;;10.81;100.00;100864.15;1741059;82;26321;-71
2021/05/12 05:08:01;;;;;;;16.43;3.23;;;;;;;10.80;100.00;100869.42;1740692;82;26258;-71
2021/05/12 05:10:31;;;;;;;13.27;2.10;;;;;;;10.83;100.00;100870.23;1740484;82;26349;-71
2021/05/12 05:13:01;;;;;;;9.93;2.13;;;;;;;10.92;100.00;100869.35;1739685;81;26303;-71
2021/05/12 05:15:31;;;;;;;10.50;2.67;;;;;;;10.93;100.00;100874.36;1740397;82;26359;-71
2021/05/12 05:18:01;;;;;;;11.83;2.60;;;;;;;10.81;100.00;100871.09;1743511;82;26239;-71
2021/05/12 05:20:32;;;;;;;11.10;2.40;;;;;;;10.78;100.00;100875.26;1738612;82;26242;-71
2021/05/12 05:23:04;;;;;;;16.57;2.77;;;;;;;10.80;100.00;100874.43;1775154;81;26678;-71
2021/05/12 05:25:34;;;;;;;12.73;2.77;;;;;;;10.74;100.00;100878.92;1766772;81;26236;-71
2021/05/12 05:28:05;;;;;;;12.87;3.17;;;;;;;10.80;100.00;100884.70;1742955;82;26688;-71
2021/05/12 05:30:35;;;;;;;12.53;2.60;;;;;;;10.79;100.00;100880.27;1748079;82;26258;-71
2021/05/12 05:33:05;;;;;;;9.73;2.37;;;;;;;10.83;100.00;100879.96;1738609;82;26693;-71
2021/05/12 05:35:35;;;;;;;10.63;2.33;;;;;;;10.86;100.00;100874.69;1774981;81;26332;-71
2021/05/12 05:38:04;;;;;;;16.47;3.60;;;;;;;10.90;100.00;100878.55;1772395;81;26262;-71
2021/05/12 05:40:34;;;;;;;11.00;2.67;;;;;;;10.79;100.00;100883.88;1766084;81;26313;-70
2021/05/12 05:43:07;;;;;;;15.17;2.73;;;;;;;10.86;100.00;100882.19;1766221;81;26322;-71
2021/05/12 05:45:36;;;;;;;14.97;3.17;;;;;;;10.90;100.00;100876.33;1766363;81;26371;-71
2021/05/12 05:48:07;;;;;;;15.90;3.23;;;;;;;10.95;100.00;100888.81;1766233;81;26818;-72
2021/05/12 05:50:37;;;;;;;12.40;2.87;;;;;;;10.89;100.00;100878.27;1766199;81;26232;-74
2021/05/12 05:53:07;;;;;;;16.70;3.77;;;;;;;10.94;100.00;100882.42;1766282;81;26289;-73
2021/05/12 05:55:37;;;;;;;11.23;2.57;;;;;;;11.04;100.00;100887.06;1766190;81;26247;-73
2021/05/12 05:58:07;;;;;;;10.97;2.77;;;;;;;11.11;100.00;100888.15;1766132;81;26252;-73
2021/05/12 06:00:37;;;;;;;9.17;2.30;;;;;;;11.09;100.00;100884.25;1766191;81;26255;-73
2021/05/12 06:03:07;;;;;;;10.97;2.40;;;;;;;11.13;100.00;100874.22;1766059;81;26351;-74
2021/05/12 06:05:37;;;;;;;11.17;2.53;;;;;;;11.19;100.00;100889.75;1766202;81;26235;-73
2021/05/12 06:08:07;;;;;;;11.90;3.00;;;;;;;11.24;100.00;100889.73;1766214;81;26333;-73
2021/05/12 06:10:37;;;;;;;11.23;2.67;;;;;;;11.20;100.00;100891.98;1766198;81;26721;-72
2021/05/12 06:13:07;;;;;;;12.03;2.57;;;;;;;11.20;100.00;100885.03;1772332;81;26294;-71
2021/05/12 06:15:39;;;;;;;14.63;3.17;;;;;;;11.22;100.00;100888.34;1771539;81;26266;-73
2021/05/12 06:18:10;;;;;;;12.20;2.30;;;;;;;11.25;100.00;100887.20;1771382;81;26290;-73
2021/05/12 06:20:41;;;;;;;9.07;2.30;;;;;;;11.34;100.00;100886.02;1771377;81;26278;-73
2021/05/12 06:23:11;;;;;;;15.77;2.90;;;;;;;11.41;100.00;100884.59;1771445;81;26721;-72
2021/05/12 06:25:41;;;;;;;8.73;2.47;;;;;;;11.54;100.00;100887.83;1771348;81;26255;-72
2021/05/12 06:28:11;;;;;;;9.87;2.47;;;;;;;11.73;100.00;100888.80;1771381;81;26340;-73
2021/05/12 06:30:44;;;;;;;14.03;3.40;;;;;;;11.70;100.00;100881.84;1771352;81;26254;-73
2021/05/12 06:33:12;;;;;;;15.40;2.67;;;;;;;11.85;100.00;100884.50;1770993;80;26247;-72
2021/05/12 06:35:42;;;;;;;15.57;3.07;;;;;;;11.86;100.00;100886.73;1771370;81;26345;-73
2021/05/12 06:38:12;;;;;;;16.63;3.00;;;;;;;11.90;100.00;100880.01;1771675;81;26418;-73
2021/05/12 06:40:42;;;;;;;13.07;3.30;;;;;;;11.86;100.00;100889.51;1771284;81;26333;-73
2021/05/12 06:43:12;;;;;;;13.43;3.40;;;;;;;11.92;100.00;100886.95;1771244;81;26742;-73
2021/05/12 06:45:42;;;;;;;15.73;3.53;;;;;;;11.95;100.00;100892.48;1771328;80;26258;-73
2021/05/12 06:48:12;;;;;;;12.53;3.50;;;;;;;12.03;100.00;100887.67;1771351;81;26250;-73
2021/05/12 06:50:43;;;;;;;12.93;2.80;;;;;;;12.04;100.00;100890.17;1771342;81;26259;-72
2021/05/12 06:53:13;;;;;;;13.57;2.80;;;;;;;12.16;100.00;100897.55;1771340;81;26678;-72
2021/05/12 06:55:45;;;;;;;14.40;3.20;;;;;;;12.21;100.00;100886.37;1771313;81;26325;-73
2021/05/12 06:58:15;;;;;;;14.00;3.50;;;;;;;12.26;100.00;100886.32;1771342;81;26254;-73
2021/05/12 07:00:45;;;;;;;13.93;2.67;;;;;;;12.28;100.00;100888.23;1771363;81;26300;-72
2021/05/12 07:03:14;;;;;;;13.00;2.43;;;;;;;12.40;100.00;100890.63;1771438;81;26286;-72
2021/05/12 07:05:44;;;;;;;11.83;3.17;;;;;;;12.45;100.00;100886.95;1771386;81;26327;-73
2021/05/12 07:08:14;;;;;;;10.30;2.33;;;;;;;12.46;100.00;100884.41;1771401;81;26246;-73
2021/05/12 07:10:44;;;;;;;9.50;2.50;;;;;;;12.42;100.00;100886.13;1771506;81;26328;-73
2021/05/12 07:13:14;;;;;;;8.03;2.20;;;;;;;12.37;100.00;100884.23;1769605;81;26311;-72
2021/05/12 07:15:44;;;;;;;13.47;3.47;;;;;;;12.41;100.00;100895.05;1767134;81;26326;-73
2021/05/12 07:18:14;;;;;;;12.20;2.60;;;;;;;12.52;100.00;100890.20;1768380;81;26301;-73
2021/05/12 07:20:45;;;;;;;12.03;3.30;;;;;;;12.63;100.00;100883.36;1768355;81;26255;-72
2021/05/12 07:23:19;;;;;;;16.37;2.83;;;;;;;12.71;100.00;100882.69;1768455;81;26251;-73
2021/05/12 07:25:48;;;;;;;8.50;2.50;;;;;;;12.92;100.00;100880.48;1736603;82;26258;-73
2021/05/12 07:28:19;;;;;;;12.43;2.53;;;;;;;13.13;100.00;100886.91;1737388;82;26268;-73
2021/05/12 07:30:50;;;;;;;10.97;2.70;;;;;;;13.15;100.00;100883.23;1736912;83;26622;-74
2021/05/12 07:33:20;;;;;;;8.57;2.10;;;;;;;13.26;100.00;100875.55;1737423;82;26370;-74
2021/05/12 07:35:50;;;;;;;9.87;2.13;;;;;;;13.60;100.00;100879.47;1768049;81;26847;-73
2021/05/12 07:38:19;;;;;;;10.83;2.67;;;;;;;13.63;100.00;100878.28;1768465;81;26380;-73
2021/05/12 07:40:49;;;;;;;8.80;2.13;;;;;;;13.46;100.00;100878.02;1768411;81;26286;-73
2021/05/12 07:43:19;;;;;;;5.90;1.70;;;;;;;13.40;100.00;100883.40;1756348;81;26659;-73
2021/05/12 07:45:49;;;;;;;7.80;1.90;;;;;;;13.36;100.00;100891.28;1768369;81;26322;-73
2021/05/12 07:48:19;;;;;;;10.70;2.27;;;;;;;13.04;100.00;100894.25;1768396;81;26325;-73
2021/05/12 07:50:49;;;;;;;11.33;2.07;;;;;;;13.15;100.00;100891.59;1768413;81;26251;-73
2021/05/12 07:53:18;;;;;;;7.93;2.17;;;;;;;13.88;100.00;100883.98;1768509;81;26714;-73
2021/05/12 07:55:49;;;;;;;10.83;2.57;;;;;;;13.88;100.00;100883.16;1768339;81;26333;-73
2021/05/12 07:58:19;;;;;;;10.40;2.63;;;;;;;13.60;100.00;100881.69;1768240;81;26255;-73
2021/05/12 08:00:48;;;;;;;10.13;2.63;;;;;;;13.48;100.00;100880.48;1768458;81;26247;-73
2021/05/12 08:03:18;;;;;;;7.93;2.17;;;;;;;13.39;100.00;100882.33;1768359;81;26718;-73
2021/05/12 08:05:49;;;;;;;12.37;2.83;;;;;;;13.42;100.00;100881.15;1768450;81;26309;-73
2021/05/12 08:08:19;;;;;;;8.40;2.70;;;;;;;13.65;100.00;100875.16;1768284;81;26749;-73
2021/05/12 08:10:50;;;;;;;5.27;1.83;;;;;;;13.69;100.00;100872.86;1768470;81;26259;-73
2021/05/12 08:13:20;;;;;;;8.50;1.93;;;;;;;13.75;100.00;100876.96;1768528;81;26287;-73
2021/05/12 08:15:50;;;;;;;11.10;2.53;;;;;;;13.67;100.00;100875.70;1771313;81;26266;-73
2021/05/12 08:18:20;;;;;;;9.10;2.77;;;;;;;13.64;100.00;100877.72;1771318;81;26379;-72
2021/05/12 08:20:52;;;;;;;9.20;2.10;;;;;;;13.41;100.00;100878.09;1771439;81;26350;-73
2021/05/12 08:23:22;;;;;;;9.77;2.30;;;;;;;13.56;100.00;100880.61;1771426;81;26317;-73
2021/05/12 08:25:52;;;;;;;7.77;2.07;;;;;;;13.54;100.00;100871.73;1771425;81;26741;-73
2021/05/12 08:28:22;;;;;;;6.83;1.77;;;;;;;13.52;100.00;100876.77;1771349;81;26309;-73
2021/05/12 08:30:55;;;;;;;10.30;2.10;;;;;;;13.57;100.00;100875.30;1771466;81;26321;-73
2021/05/12 08:33:25;;;;;;;7.93;2.10;;;;;;;13.75;100.00;100875.56;1771716;81;26243;-73
2021/05/12 08:35:54;;;;;;;11.33;2.67;;;;;;;13.79;100.00;100875.22;1771344;81;26732;-73
2021/05/12 08:38:25;;;;;;;7.93;2.70;;;;;;;13.75;100.00;100879.75;1771330;81;26706;-73
2021/05/12 08:40:57;;;;;;;5.57;1.93;;;;;;;13.92;100.00;100882.23;1771416;80;26270;-73
2021/05/12 08:43:28;;;;;;;7.77;1.90;;;;;;;14.01;100.00;100879.00;1771495;81;26259;-73
2021/05/12 08:45:58;;;;;;;7.23;2.30;;;;;;;14.00;100.00;100870.92;1771430;81;26678;-74
2021/05/12 08:48:29;;;;;;;8.20;2.20;;;;;;;14.08;100.00;100870.20;1771355;81;26353;-73
2021/05/12 08:50:59;;;;;;;7.53;1.87;;;;;;;14.25;100.00;100869.03;1771419;81;26263;-72
2021/05/12 08:53:29;;;;;;;9.80;2.70;;;;;;;14.57;100.00;100866.19;1771509;81;26339;-73
2021/05/12 08:56:01;;;;;;;7.67;2.37;;;;;;;15.08;100.00;100862.83;1771368;81;26250;-73
2021/05/12 08:58:30;;;;;;;11.93;2.40;;;;;;;15.27;100.00;100861.55;1771453;81;26302;-74
2021/05/12 09:01:01;;;;;;;10.53;2.03;;;;;;;15.23;100.00;100852.09;1771360;81;26294;-73
2021/05/12 09:03:31;;;;;;;6.37;1.97;;;;;;;15.41;100.00;100848.88;1771331;81;26349;-74
2021/05/12 09:06:01;;;;;;;9.53;1.83;;;;;;;15.61;100.00;100847.59;1771348;81;26677;-73
2021/05/12 09:08:32;;;;;;;4.87;1.70;;;;;;;15.99;100.00;100857.78;1771294;81;26301;-73
2021/05/12 09:11:01;;;;;;;5.03;1.37;;;;;;;16.00;100.00;100856.64;1771426;81;26710;-73
2021/05/12 09:13:37;;;;;;;7.23;1.73;;;;;;;16.02;100.00;100857.97;1771303;81;26310;-74
2021/05/12 09:16:22;;;;;;;4.77;2.10;;;;;;;16.09;100.00;100860.33;1739911;81;26313;-73
2021/05/12 09:19:01;;;;;;;3.70;1.67;;;;;;;16.35;100.00;100859.27;1749279;82;26271;-73
2021/05/12 09:21:45;;;;;;;5.80;1.80;;;;;;;16.48;100.00;100856.67;1742435;82;26352;-73
2021/05/12 09:24:27;;;;;;;5.10;1.97;;;;;;;16.25;100.00;100859.58;1740592;82;26812;-73
2021/05/12 09:26:59;;;;;;;6.07;1.80;;;;;;;16.32;100.00;100860.50;1740309;82;26709;-73
2021/05/12 09:29:32;;;;;;;6.77;2.03;;;;;;;16.53;100.00;100853.73;1739733;82;26251;-73
2021/05/12 09:32:12;;;;;;;7.37;2.03;;;;;;;16.61;100.00;100848.17;1742024;82;26270;-74
2021/05/12 09:35:08;;;;;;;5.23;1.83;;;;;;;16.68;100.00;100838.73;1747826;82;26255;-73
2021/05/12 09:37:41;;;;;;;6.30;1.60;;;;;;;16.61;100.00;100847.34;1739598;81;26780;-73
2021/05/12 09:40:15;;;;;;;4.83;2.30;;;;;;;16.27;100.00;100848.85;1741202;82;26262;-74
2021/05/12 09:42:47;;;;;;;8.00;2.10;;;;;;;16.01;100.00;100856.88;1740319;82;26720;-73
2021/05/12 09:45:20;;;;;;;5.60;1.60;;;;;;;15.83;100.00;100851.17;1739504;81;26333;-73
2021/05/12 09:47:52;;;;;;;9.53;2.53;;;;;;;15.71;100.00;100852.91;1747376;82;26376;-74
2021/05/12 09:50:25;;;;;;;9.60;2.47;;;;;;;15.66;100.00;100854.47;1742094;82;26697;-73
2021/05/12 09:52:56;;;;;;;7.77;2.20;;;;;;;15.54;100.00;100852.22;1739111;82;26781;-73
2021/05/12 09:55:36;;;;;;;5.33;1.90;;;;;;;15.58;100.00;100866.41;1740347;82;26265;-73
2021/05/12 09:58:08;;;;;;;11.57;2.17;;;;;;;15.56;100.00;100863.11;1747236;82;26727;-73
2021/05/12 10:00:40;;;;;;;9.80;2.70;;;;;;;15.61;100.00;100872.78;1742222;82;26784;-73
2021/05/12 10:03:12;;;;;;;6.03;2.33;;;;;;;15.50;100.00;100875.00;1749439;82;26286;-73
2021/05/12 10:06:02;;;;;;;9.30;2.90;;;;;;;15.32;100.00;100873.16;1742523;82;26269;-73
2021/05/12 10:08:33;;;;;;;8.40;2.40;;;;;;;15.54;100.00;100882.19;1749413;82;26690;-73
2021/05/12 10:11:06;;;;;;;11.40;3.03;;;;;;;15.46;100.00;100877.58;1742645;82;26279;-73
2021/05/12 10:13:38;;;;;;;9.43;2.70;;;;;;;15.43;100.00;100878.79;1742154;82;26698;-73
2021/05/12 10:16:12;;;;;;;12.60;2.80;;;;;;;15.03;100.00;100886.16;1736400;81;26389;-73
2021/05/12 10:18:42;;;;;;;14.60;9.77;;;;;;;14.99;100.00;100878.97;1742005;82;26329;-74
2021/05/12 10:21:13;;;;;;;10.83;6.07;;;;;;;15.10;100.00;100877.35;1732408;83;26275;-74
2021/05/12 10:23:44;;;;;;;9.07;4.67;;;;;;;15.27;100.00;100874.14;1741732;82;26701;-74
2021/05/12 10:26:14;;;;;;;7.73;2.67;;;;;;;15.85;100.00;100862.90;1732296;83;26271;-74
2021/05/12 10:28:45;;;;;;;9.07;3.03;;;;;;;16.17;100.00;100859.53;1741687;82;26702;-74
2021/05/12 10:31:14;;;;;;;7.00;1.67;;;;;;;16.03;100.00;100861.03;1732417;83;26328;-74
2021/05/12 10:33:48;;;;;;;5.97;1.80;;;;;;;16.35;100.00;100854.23;1741914;82;26259;-74
2021/05/12 10:36:18;;;;;;;7.50;2.17;;;;;;;16.04;100.00;100852.05;1732332;83;26267;-74
2021/05/12 10:38:49;;;;;;;7.60;2.33;;;;;;;16.19;100.00;100845.44;1741812;82;26272;-74
2021/05/12 10:41:38;;;;;;;9.93;2.43;;;;;;;16.49;100.00;100847.95;1732337;83;26422;-74
2021/05/12 10:44:16;;;;;;;6.83;2.20;;;;;;;16.31;100.00;100843.42;1741693;82;26247;-74
2021/05/12 10:46:52;;;;;;;7.63;1.90;;;;;;;16.34;100.00;100837.19;1732397;83;26325;-73
2021/05/12 10:49:24;;;;;;;7.53;1.43;;;;;;;16.65;100.00;100835.73;1730877;81;26265;-73
2021/05/12 10:51:56;;;;;;;9.50;2.17;;;;;;;16.81;100.00;100836.94;1741700;82;26262;-73
2021/05/12 10:54:44;;;;;;;7.50;1.73;;;;;;;17.03;100.00;100833.97;1732384;83;26258;-73
2021/05/12 10:57:34;;;;;;;4.97;1.83;;;;;;;16.55;100.00;100831.23;1741827;82;26242;-74
2021/05/12 11:00:05;;;;;;;8.93;2.37;;;;;;;16.21;100.00;100836.72;1732283;81;26267;-74
2021/05/12 11:03:02;;;;;;;9.33;2.47;;;;;;;16.47;100.00;100829.81;1741823;82;26766;-74
2021/05/12 11:06:00;;;;;;;10.83;2.50;;;;;;;16.60;100.00;100826.09;1732295;83;26453;-74
2021/05/12 11:08:32;;;;;;;8.23;2.20;;;;;;;16.66;100.00;100827.56;1741749;82;26776;-73
2021/05/12 11:11:04;;;;;;;8.57;2.30;;;;;;;16.22;100.00;100824.34;1732600;83;26305;-73
2021/05/12 11:13:36;;;;;;;7.93;2.07;;;;;;;16.07;100.00;100838.22;1741812;82;26671;-73
2021/05/12 11:16:07;;;;;;;6.30;1.83;;;;;;;15.80;100.00;100847.62;1732339;81;26321;-74
2021/05/12 11:18:53;;;;;;;5.17;1.50;;;;;;;15.19;100.00;100853.08;1741747;82;26388;-74
2021/05/12 11:21:34;;;;;;;2.73;1.10;;;;;;;15.00;100.00;100850.43;1732442;83;26325;-73
2021/05/12 11:24:21;;;;;;;3.97;1.00;;;;;;;14.74;100.00;100853.53;1742078;82;26800;-74
2021/05/12 11:27:21;;;;;;;3.97;1.27;;;;;;;14.62;100.00;100842.89;1732458;83;26321;-74
2021/05/12 11:32:39;;;;;;;6.00;1.50;;;;;;;15.34;100.00;100840.10;1732385;83;26275;-74
2021/05/12 11:35:12;;;;;;;4.20;1.70;;;;;;;15.52;100.00;100842.50;1741730;82;26729;-74
2021/05/12 11:37:44;;;;;;;3.57;1.73;;;;;;;15.93;100.00;100836.08;1732366;83;26305;-74